Time;durP1;ratioP1;P1;durP2;ratioP2;P2;SDS_P1;SDS_P2;PMS_P1;PMS_P2;Temp;Humidity;BMP_temperature;BMP_pressure;BME280_temperature;BME280_humidity;BME280_pressure;Samples;Min_cycle;Max_cycle;Signal;HPM_P1;HPM_P2
2021/03/04 00:03:51;;;;;;;74.60;38.20;;;;;;;3.23;87.23;102135.75;10219011;28;20077;-68
2021/03/04 00:08:47;;;;;;;67.68;35.30;;;;;;;3.30;87.18;102129.19;10209920;28;20186;-68
2021/03/04 00:13:43;;;;;;;68.47;37.05;;;;;;;3.34;87.68;102124.09;10219938;28;20049;-68
2021/03/04 00:18:39;;;;;;;80.78;42.20;;;;;;;3.17;87.97;102145.59;10212685;28;20421;-67
2021/03/04 00:23:35;;;;;;;77.78;41.40;;;;;;;3.20;87.94;102149.72;10203904;28;20499;-68
2021/03/04 00:28:31;;;;;;;82.00;39.42;;;;;;;2.85;88.11;102148.59;10193269;28;20046;-67
2021/03/04 00:33:27;;;;;;;84.57;45.20;;;;;;;2.92;87.84;102132.28;10221259;28;20049;-67
2021/03/04 00:38:23;;;;;;;89.68;46.70;;;;;;;2.94;87.58;102130.19;10214640;28;20057;-67
2021/03/04 00:43:19;;;;;;;85.40;46.83;;;;;;;3.05;86.87;102136.66;10213629;28;20054;-69
2021/03/04 00:48:15;;;;;;;81.20;42.28;;;;;;;2.94;85.99;102130.19;10213556;28;20037;-70
2021/03/04 00:53:12;;;;;;;56.58;28.42;;;;;;;2.86;85.47;102120.53;10214021;28;20073;-69
2021/03/04 00:58:08;;;;;;;61.63;33.42;;;;;;;2.84;86.09;102119.13;10201083;28;20038;-69
2021/03/04 01:03:04;;;;;;;53.25;30.15;;;;;;;2.91;85.18;102125.25;10207752;28;20100;-69
2021/03/04 01:08:01;;;;;;;47.38;25.75;;;;;;;2.70;84.80;102122.03;10199886;28;20184;-69
2021/03/04 01:12:57;;;;;;;48.40;27.67;;;;;;;2.82;84.76;102123.94;10199419;28;20173;-69
2021/03/04 01:17:53;;;;;;;50.47;27.02;;;;;;;2.42;86.04;102119.13;10195070;28;20054;-68
2021/03/04 01:22:49;;;;;;;40.13;20.42;;;;;;;2.31;86.09;102120.72;10220059;28;20559;-68
2021/03/04 01:27:47;;;;;;;43.05;23.13;;;;;;;2.40;86.16;102105.03;10200835;28;20076;-69
2021/03/04 01:32:43;;;;;;;34.58;17.60;;;;;;;2.15;86.75;102092.47;10208621;28;20057;-68
2021/03/04 01:37:39;;;;;;;38.63;20.33;;;;;;;2.33;86.14;102085.41;10212008;28;20052;-68
2021/03/04 01:42:36;;;;;;;30.25;16.02;;;;;;;2.33;85.70;102088.09;10216080;28;20430;-69
2021/03/04 01:47:33;;;;;;;28.65;15.13;;;;;;;2.29;85.49;102088.53;10204262;28;20056;-69
2021/03/04 01:52:30;;;;;;;23.20;12.48;;;;;;;2.13;85.53;102082.97;10207659;28;20414;-69
2021/03/04 01:57:32;;;;;;;24.90;13.02;;;;;;;2.27;85.71;102071.75;10212140;28;20519;-69
2021/03/04 02:02:28;;;;;;;25.87;12.80;;;;;;;2.37;85.54;102070.38;10213328;28;20057;-69
2021/03/04 02:07:55;;;;;;;20.45;9.23;;;;;;;2.27;85.47;102077.16;10210521;28;20491;-69
2021/03/04 02:13:07;;;;;;;24.55;12.70;;;;;;;2.46;85.68;102069.00;10212133;28;20053;-69
2021/03/04 02:18:06;;;;;;;26.08;12.98;;;;;;;2.46;84.52;102063.59;10206184;28;20068;-69
2021/03/04 02:23:10;;;;;;;23.27;12.38;;;;;;;2.37;84.98;102056.88;10210823;28;20061;-69
2021/03/04 02:28:07;;;;;;;19.88;12.02;;;;;;;2.45;83.93;102061.97;10197884;28;20041;-69
2021/03/04 02:33:30;;;;;;;18.80;11.35;;;;;;;2.69;83.74;102057.44;10206291;28;20114;-69
2021/03/04 02:38:27;;;;;;;15.17;7.47;;;;;;;2.48;83.71;102050.69;10207862;28;20046;-69
2021/03/04 02:43:25;;;;;;;18.40;9.05;;;;;;;2.24;84.25;102039.81;10198357;28;20058;-68
2021/03/04 02:48:22;;;;;;;13.60;9.07;;;;;;;2.33;83.82;102034.13;10203723;28;20092;-69
2021/03/04 02:53:20;;;;;;;13.98;6.28;;;;;;;2.20;84.61;102027.03;10203641;28;20463;-69
2021/03/04 02:58:18;;;;;;;16.02;9.30;;;;;;;2.44;84.00;102025.22;10206120;28;20044;-68
2021/03/04 03:03:16;;;;;;;13.88;8.15;;;;;;;2.28;84.50;102019.44;10209090;28;20049;-68
2021/03/04 03:08:17;;;;;;;11.98;7.00;;;;;;;2.19;84.40;102022.69;10202433;28;20061;-68
2021/03/04 03:13:15;;;;;;;12.75;7.07;;;;;;;2.41;82.96;102006.78;10221409;28;20045;-69
2021/03/04 03:18:11;;;;;;;9.50;6.50;;;;;;;2.47;82.06;101995.88;10219803;28;20412;-70
2021/03/04 03:23:08;;;;;;;11.88;6.82;;;;;;;2.53;82.30;101980.66;10226218;28;20107;-69
2021/03/04 03:28:04;;;;;;;11.93;5.32;;;;;;;2.50;82.78;101983.78;10224147;28;20042;-70
2021/03/04 03:33:07;;;;;;;11.57;7.70;;;;;;;2.45;83.39;101989.06;10232687;28;20818;-70
2021/03/04 03:38:04;;;;;;;12.60;7.87;;;;;;;2.53;82.82;101980.66;10231106;28;20085;-70
2021/03/04 03:43:03;;;;;;;12.70;6.68;;;;;;;2.60;82.86;101981.34;10230260;28;20080;-70
2021/03/04 03:48:01;;;;;;;12.63;7.05;;;;;;;2.58;81.76;101969.97;10226103;28;20072;-69
2021/03/04 03:53:00;;;;;;;10.38;6.80;;;;;;;2.70;81.12;101965.38;10227297;28;20058;-69
2021/03/04 03:57:59;;;;;;;8.68;4.97;;;;;;;2.59;80.84;101970.78;10227887;28;20136;-69
2021/03/04 04:03:03;;;;;;;11.30;4.80;;;;;;;2.60;80.40;101967.84;10216524;28;20060;-69
2021/03/04 04:08:00;;;;;;;10.13;5.00;;;;;;;2.67;80.44;101963.16;10226832;28;20042;-68
2021/03/04 04:12:57;;;;;;;7.35;4.03;;;;;;;2.60;79.96;101973.25;10223291;28;20049;-69
2021/03/04 04:17:56;;;;;;;9.88;5.03;;;;;;;2.68;79.69;101959.38;10210003;28;20045;-69
2021/03/04 04:23:12;;;;;;;10.32;4.32;;;;;;;2.64;79.37;101952.81;10222447;28;20557;-69
2021/03/04 04:28:08;;;;;;;10.82;5.30;;;;;;;2.85;79.21;101948.69;10204168;28;20041;-69
2021/03/04 04:33:04;;;;;;;7.95;4.82;;;;;;;3.01;78.74;101941.75;10213018;28;20050;-69
2021/03/04 04:38:00;;;;;;;7.85;3.65;;;;;;;2.74;78.75;101926.06;10201260;28;20104;-69
2021/03/04 04:42:56;;;;;;;8.63;4.38;;;;;;;2.98;78.00;101915.22;10205077;28;20042;-68
2021/03/04 04:47:52;;;;;;;7.15;4.50;;;;;;;3.01;77.83;101909.31;10213936;28;20095;-70
2021/03/04 04:52:49;;;;;;;6.57;3.95;;;;;;;2.83;78.18;101917.56;10212487;28;20045;-70
2021/03/04 04:57:45;;;;;;;7.15;4.72;;;;;;;2.96;77.84;101901.13;10213282;28;20085;-69
2021/03/04 05:02:41;;;;;;;6.90;4.13;;;;;;;2.89;77.89;101901.25;10215286;28;20055;-69
2021/03/04 05:07:37;;;;;;;10.02;5.30;;;;;;;2.90;78.32;101899.34;10207910;28;20498;-70
2021/03/04 05:12:34;;;;;;;10.40;6.10;;;;;;;2.90;78.18;101891.25;10198651;28;20565;-70
2021/03/04 05:17:30;;;;;;;6.57;4.28;;;;;;;2.94;77.52;101892.44;10209303;28;20057;-70
2021/03/04 05:22:26;;;;;;;9.77;5.57;;;;;;;3.13;76.77;101888.53;10204672;28;20423;-71
2021/03/04 05:27:22;;;;;;;10.48;5.18;;;;;;;3.07;76.64;101885.94;10208873;28;20059;-71
2021/03/04 05:32:19;;;;;;;7.93;4.90;;;;;;;2.95;77.58;101877.88;10204027;28;20100;-69
2021/03/04 05:37:15;;;;;;;8.38;4.22;;;;;;;2.95;77.65;101875.16;10217468;28;20072;-67
2021/03/04 05:42:11;;;;;;;9.82;4.93;;;;;;;3.05;77.56;101877.25;10211875;28;20057;-70
2021/03/04 05:47:09;;;;;;;7.47;3.78;;;;;;;3.06;77.24;101874.31;10211733;28;20103;-69
2021/03/04 05:52:07;;;;;;;9.85;4.63;;;;;;;2.94;77.94;101876.22;10216302;28;20111;-68
2021/03/04 05:57:06;;;;;;;9.80;3.92;;;;;;;2.98;77.17;101871.97;10203640;28;20053;-69
2021/03/04 06:02:06;;;;;;;6.88;3.75;;;;;;;2.95;77.75;101861.66;10199025;28;20050;-68
2021/03/04 06:07:03;;;;;;;10.02;4.13;;;;;;;3.05;77.02;101850.25;10197513;28;20053;-70
2021/03/04 06:12:06;;;;;;;6.80;3.20;;;;;;;3.11;77.31;101855.50;10196308;28;20080;-69
2021/03/04 06:17:15;;;;;;;7.95;3.33;;;;;;;3.15;76.70;101845.84;10194984;28;20120;-69
2021/03/04 06:22:11;;;;;;;10.13;4.00;;;;;;;3.15;76.88;101848.53;10207751;28;20112;-69
2021/03/04 06:27:08;;;;;;;10.20;4.03;;;;;;;3.15;76.93;101845.84;10200238;28;20050;-68
2021/03/04 06:32:08;;;;;;;7.53;2.60;;;;;;;3.01;76.53;101855.28;10209339;28;20699;-69
2021/03/04 06:37:06;;;;;;;8.27;3.63;;;;;;;3.16;76.29;101842.09;10204421;28;20057;-69
2021/03/04 06:42:04;;;;;;;10.27;3.60;;;;;;;3.16;76.37;101831.28;10193809;28;20408;-69
2021/03/04 06:47:01;;;;;;;17.40;5.88;;;;;;;3.24;76.35;101848.19;10196750;28;20089;-70
2021/03/04 06:51:57;;;;;;;8.10;4.00;;;;;;;3.36;76.21;101852.50;10216989;28;20103;-66
2021/03/04 06:56:53;;;;;;;6.50;3.40;;;;;;;3.30;76.44;101852.63;10210617;28;20436;-68
2021/03/04 07:01:49;;;;;;;8.85;3.05;;;;;;;3.37;76.01;101842.50;10214489;28;20045;-69
2021/03/04 07:06:46;;;;;;;7.88;3.28;;;;;;;3.38;75.63;101849.53;10194853;28;20125;-67
2021/03/04 07:11:43;;;;;;;10.98;2.67;;;;;;;3.35;76.08;101855.41;10195143;28;20050;-69
2021/03/04 07:16:45;;;;;;;9.40;3.30;;;;;;;3.37;75.97;101856.00;10192487;28;20046;-67
2021/03/04 07:21:45;;;;;;;7.32;3.03;;;;;;;3.54;75.21;101843.31;10204236;28;20045;-68
2021/03/04 07:26:41;;;;;;;9.75;3.45;;;;;;;3.42;75.79;101842.56;10210006;28;20560;-68
2021/03/04 07:31:39;;;;;;;12.15;3.25;;;;;;;3.59;74.98;101840.72;10218040;28;20049;-69
2021/03/04 07:36:36;;;;;;;11.82;2.70;;;;;;;3.66;74.95;101845.16;10224082;28;20141;-67
2021/03/04 07:41:42;;;;;;;12.38;3.10;;;;;;;3.64;74.69;101852.69;10203955;28;20458;-68
2021/03/04 07:46:52;;;;;;;11.88;2.70;;;;;;;3.65;75.13;101832.72;10208926;28;20041;-67
2021/03/04 07:51:48;;;;;;;6.10;2.55;;;;;;;3.78;74.36;101838.63;10195435;28;20141;-68
2021/03/04 07:56:44;;;;;;;8.98;3.40;;;;;;;3.73;74.68;101845.81;10208595;28;20045;-64
2021/03/04 08:01:42;;;;;;;6.75;2.38;;;;;;;3.76;74.45;101846.16;10213467;28;20053;-68
2021/03/04 08:06:44;;;;;;;8.07;2.47;;;;;;;3.55;75.30;101846.84;10179473;28;568779;-68
2021/03/04 08:11:40;;;;;;;6.85;2.55;;;;;;;3.70;74.41;101830.09;10211662;28;20069;-65
2021/03/04 08:16:56;;;;;;;8.35;2.97;;;;;;;3.82;74.99;101828.13;10223069;28;20061;-69
2021/03/04 08:22:01;;;;;;;12.95;2.78;;;;;;;3.96;74.80;101824.03;10214692;28;20043;-66
2021/03/04 08:26:59;;;;;;;8.00;3.05;;;;;;;4.04;74.29;101830.09;10208580;28;20042;-66
2021/03/04 08:31:57;;;;;;;12.40;2.65;;;;;;;3.94;74.21;101815.31;10198865;28;20521;-66
2021/03/04 08:36:53;;;;;;;12.75;2.90;;;;;;;4.14;73.59;101808.59;10210843;28;20048;-66
2021/03/04 08:41:49;;;;;;;11.73;3.03;;;;;;;3.97;74.55;101812.16;10206818;28;20065;-65
2021/03/04 08:46:48;;;;;;;7.97;2.63;;;;;;;4.16;73.42;101798.34;10202838;28;20542;-66
2021/03/04 08:51:46;;;;;;;12.43;3.50;;;;;;;4.32;73.16;101788.56;10210501;28;20846;-67
2021/03/04 08:57:03;;;;;;;13.65;3.67;;;;;;;4.20;73.38;101803.03;10205353;28;20147;-65
2021/03/04 09:01:59;;;;;;;8.95;2.75;;;;;;;4.30;73.48;101805.06;10207887;28;20053;-65
2021/03/04 09:06:56;;;;;;;8.63;2.90;;;;;;;4.24;73.37;101795.19;10204620;28;20046;-65
2021/03/04 09:11:56;;;;;;;6.30;2.30;;;;;;;4.48;72.44;101792.28;10210204;28;20099;-65
2021/03/04 09:16:53;;;;;;;7.68;2.90;;;;;;;4.32;73.82;101792.09;10205810;28;20388;-66
2021/03/04 09:21:50;;;;;;;17.75;3.00;;;;;;;4.48;73.41;101782.28;10209110;28;20392;-66
2021/03/04 09:27:07;;;;;;;11.68;2.72;;;;;;;4.67;72.98;101780.09;10208630;28;20067;-66
2021/03/04 09:32:04;;;;;;;8.35;2.58;;;;;;;4.62;72.53;101782.75;10208505;28;20064;-67
2021/03/04 09:37:05;;;;;;;13.88;2.95;;;;;;;4.83;73.00;101773.78;10203643;28;20049;-67
2021/03/04 09:42:01;;;;;;;18.55;3.33;;;;;;;4.83;71.93;101762.13;10208250;28;20038;-66
2021/03/04 09:46:58;;;;;;;10.10;2.80;;;;;;;5.03;71.72;101769.66;10205493;28;20124;-66
2021/03/04 09:51:56;;;;;;;8.40;2.47;;;;;;;4.83;72.56;101778.38;10200013;28;20122;-66
2021/03/04 09:57:09;;;;;;;14.25;2.63;;;;;;;4.83;72.98;101772.97;10201395;28;20120;-67
2021/03/04 10:02:05;;;;;;;10.98;3.08;;;;;;;4.78;73.15;101776.44;10196424;28;20892;-66
2021/03/04 10:07:12;;;;;;;11.95;2.72;;;;;;;4.78;72.94;101776.44;10192902;28;20123;-66
2021/03/04 10:12:08;;;;;;;9.60;2.60;;;;;;;4.83;73.04;101767.53;10196689;28;20073;-67
2021/03/04 10:17:05;;;;;;;13.63;2.70;;;;;;;4.91;72.54;101755.44;10198995;28;20483;-67
2021/03/04 10:22:01;;;;;;;18.65;3.80;;;;;;;4.89;72.09;101754.84;10209453;28;20132;-66
2021/03/04 10:26:59;;;;;;;10.75;2.60;;;;;;;4.92;71.17;101755.19;10204157;28;20128;-65
2021/03/04 10:31:55;;;;;;;13.48;2.45;;;;;;;4.97;71.34;101757.13;10212766;28;20569;-66
2021/03/04 10:36:52;;;;;;;10.30;2.97;;;;;;;5.23;70.13;101761.72;10197061;28;20042;-66
2021/03/04 10:41:49;;;;;;;9.15;2.20;;;;;;;5.31;69.85;101762.34;10207662;28;20140;-66
2021/03/04 10:46:46;;;;;;;14.15;2.35;;;;;;;5.44;69.86;101761.91;10225841;28;20815;-67
2021/03/04 10:51:43;;;;;;;10.55;2.33;;;;;;;5.47;69.85;101773.06;10210010;28;20100;-66
2021/03/04 10:56:39;;;;;;;11.70;2.90;;;;;;;5.40;69.97;101767.03;10196172;28;20037;-65
2021/03/04 11:01:35;;;;;;;11.20;2.85;;;;;;;5.57;69.46;101775.06;10219816;28;20072;-66
2021/03/04 11:06:32;;;;;;;11.75;3.90;;;;;;;5.58;69.46;101765.84;10188743;28;20127;-66
2021/03/04 11:11:28;;;;;;;12.70;2.42;;;;;;;5.37;70.17;101774.88;10205338;28;20041;-67
2021/03/04 11:16:24;;;;;;;13.82;3.38;;;;;;;5.47;69.81;101769.53;10186857;28;20045;-67
2021/03/04 11:21:20;;;;;;;20.35;3.08;;;;;;;5.44;68.33;101778.19;10200362;28;20399;-66
2021/03/04 11:26:16;;;;;;;8.82;2.35;;;;;;;5.61;67.64;101768.03;10207710;28;20423;-70
2021/03/04 11:31:12;;;;;;;10.65;2.47;;;;;;;5.67;68.14;101761.56;10193439;28;20073;-67
2021/03/04 11:36:09;;;;;;;15.25;3.47;;;;;;;5.76;67.11;101766.53;10194944;28;20094;-66
2021/03/04 11:41:05;;;;;;;14.65;2.75;;;;;;;5.66;67.12;101749.09;10222598;28;20494;-66
2021/03/04 11:46:01;;;;;;;8.00;2.03;;;;;;;5.75;67.16;101752.13;10209098;28;20097;-67
2021/03/04 11:50:57;;;;;;;6.95;2.10;;;;;;;5.85;67.06;101745.97;10206598;28;20054;-67
2021/03/04 11:55:53;;;;;;;16.05;3.53;;;;;;;5.86;65.88;101731.31;10203244;28;20127;-67
2021/03/04 12:00:50;;;;;;;8.50;2.20;;;;;;;6.17;66.04;101726.09;10208308;28;20466;-66
2021/03/04 12:05:47;;;;;;;14.93;2.60;;;;;;;6.14;64.67;101737.50;10208608;28;20081;-66
2021/03/04 12:10:45;;;;;;;13.25;2.78;;;;;;;6.31;64.42;101721.81;10207456;28;20056;-66
2021/03/04 12:15:42;;;;;;;12.20;2.25;;;;;;;6.33;64.11;101733.25;10206019;28;20088;-67
2021/03/04 12:20:38;;;;;;;16.17;2.90;;;;;;;6.34;63.59;101731.38;10209187;28;20416;-69
2021/03/04 12:25:35;;;;;;;13.00;2.83;;;;;;;6.19;63.80;101730.19;10210432;28;20054;-66
2021/03/04 12:30:31;;;;;;;14.38;3.05;;;;;;;6.43;63.38;101725.16;10206315;28;20151;-66
2021/03/04 12:35:27;;;;;;;11.90;2.63;;;;;;;6.44;63.46;101725.97;10204446;28;20056;-65
2021/03/04 12:40:25;;;;;;;16.55;3.83;;;;;;;6.32;64.75;101731.63;10198058;28;20127;-64
2021/03/04 12:45:23;;;;;;;11.98;3.30;;;;;;;6.29;64.60;101721.28;10205480;28;20081;-65
2021/03/04 12:50:20;;;;;;;19.65;5.90;;;;;;;6.30;63.95;101725.63;10203142;28;20108;-64
2021/03/04 12:55:16;;;;;;;13.93;3.95;;;;;;;6.33;64.01;101719.66;10208892;28;20503;-63
2021/03/04 13:00:14;;;;;;;12.30;3.42;;;;;;;6.34;63.62;101718.59;10200415;28;20511;-64
2021/03/04 13:05:10;;;;;;;11.90;4.07;;;;;;;6.52;63.88;101718.13;10198343;28;20056;-64
2021/03/04 13:10:09;;;;;;;10.70;4.18;;;;;;;6.52;63.18;101709.97;10206620;28;20076;-63
2021/03/04 13:15:06;;;;;;;12.77;5.13;;;;;;;6.52;63.78;101718.13;10207410;28;20081;-64
2021/03/04 13:20:03;;;;;;;12.43;3.88;;;;;;;6.57;63.73;101708.34;10207879;28;20046;-64
2021/03/04 13:24:59;;;;;;;11.88;3.95;;;;;;;6.70;64.05;101707.84;10203357;28;20112;-64
2021/03/04 13:29:58;;;;;;;11.07;4.13;;;;;;;6.55;62.91;101714.06;10242413;28;20051;-64
2021/03/04 13:34:55;;;;;;;12.90;4.68;;;;;;;6.52;63.16;101712.69;10207998;28;20419;-62
2021/03/04 13:39:51;;;;;;;12.10;4.55;;;;;;;6.52;63.46;101723.56;10202088;28;20818;-64
2021/03/04 13:44:47;;;;;;;13.88;4.07;;;;;;;6.47;63.34;101715.38;10196918;28;20065;-64
2021/03/04 13:49:43;;;;;;;11.07;4.20;;;;;;;6.45;63.46;101725.72;10208487;28;20041;-65
2021/03/04 13:54:39;;;;;;;12.98;3.30;;;;;;;6.53;63.08;101714.31;10208587;28;20570;-62
2021/03/04 13:59:35;;;;;;;11.93;3.33;;;;;;;6.71;62.95;101725.81;10205497;28;20049;-64
2021/03/04 14:04:31;;;;;;;12.05;4.07;;;;;;;6.71;62.73;101725.81;10197019;28;20053;-64
2021/03/04 14:09:27;;;;;;;10.18;2.92;;;;;;;6.73;62.92;101718.19;10200249;28;20618;-62
2021/03/04 14:14:23;;;;;;;10.48;3.80;;;;;;;6.79;64.65;101717.09;10199641;28;20259;-62
2021/03/04 14:19:19;;;;;;;14.48;3.90;;;;;;;6.76;63.61;101712.22;10194063;28;20046;-64
2021/03/04 14:24:16;;;;;;;15.55;3.97;;;;;;;6.69;63.52;101712.47;10195891;28;20132;-66
2021/03/04 14:29:12;;;;;;;10.93;3.78;;;;;;;6.55;63.39;101708.63;10205606;28;20588;-64
2021/03/04 14:34:08;;;;;;;13.32;3.50;;;;;;;6.64;63.23;101711.66;10191450;28;20049;-64
2021/03/04 14:39:04;;;;;;;19.13;3.78;;;;;;;6.64;63.78;101698.88;10192967;28;20048;-63
2021/03/04 14:44:00;;;;;;;10.63;3.08;;;;;;;6.60;64.06;101695.03;10201384;28;20046;-64
2021/03/04 14:48:57;;;;;;;12.07;4.45;;;;;;;6.63;64.26;101699.13;10201418;28;20037;-64
2021/03/04 14:53:53;;;;;;;10.75;3.13;;;;;;;6.73;64.91;101704.63;10196351;28;20485;-67
2021/03/04 14:58:52;;;;;;;13.95;3.35;;;;;;;6.73;64.09;101697.28;10195810;28;20069;-65
2021/03/04 15:03:48;;;;;;;6.80;2.25;;;;;;;6.66;66.48;101695.88;10205824;28;20107;-65
2021/03/04 15:08:45;;;;;;;8.98;3.10;;;;;;;6.70;66.81;101705.13;10201095;28;20522;-65
2021/03/04 15:13:41;;;;;;;8.40;3.42;;;;;;;6.70;67.56;101707.84;10203179;28;20512;-65
2021/03/04 15:18:37;;;;;;;12.07;5.53;;;;;;;6.67;67.81;101721.97;10204529;28;20575;-65
2021/03/04 15:23:33;;;;;;;14.98;7.45;;;;;;;6.72;68.15;101733.66;10205276;28;20064;-64
2021/03/04 15:28:29;;;;;;;18.63;7.93;;;;;;;6.78;66.72;101731.81;10206549;28;20045;-64
2021/03/04 15:33:25;;;;;;;25.25;11.40;;;;;;;6.05;67.61;101742.59;10200886;28;20498;-64
2021/03/04 15:38:22;;;;;;;17.98;9.73;;;;;;;6.32;69.47;101737.06;10195778;28;20045;-62
2021/03/04 15:43:19;;;;;;;15.95;9.98;;;;;;;6.13;67.84;101752.97;10203621;28;20462;-64
2021/03/04 15:48:15;;;;;;;18.23;10.15;;;;;;;6.00;68.53;101751.53;10203498;28;20103;-65
2021/03/04 15:53:11;;;;;;;16.65;9.15;;;;;;;5.94;68.23;101752.59;10216882;28;20046;-65
2021/03/04 15:58:07;;;;;;;18.98;10.52;;;;;;;6.04;68.68;101765.41;10210144;28;20068;-64
2021/03/04 16:03:03;;;;;;;14.77;8.15;;;;;;;5.40;69.34;101755.38;10203647;28;20041;-65
2021/03/04 16:08:00;;;;;;;14.02;7.53;;;;;;;5.67;71.07;101767.00;10203537;28;20046;-64
2021/03/04 16:12:56;;;;;;;10.57;6.13;;;;;;;5.49;71.28;101770.09;10216761;28;20068;-64
2021/03/04 16:17:52;;;;;;;11.15;7.40;;;;;;;5.02;70.49;101770.72;10212409;28;20052;-64
2021/03/04 16:22:48;;;;;;;10.98;6.93;;;;;;;5.13;69.90;101783.31;10210251;28;20053;-62
2021/03/04 16:27:47;;;;;;;14.32;7.20;;;;;;;5.16;72.03;101788.22;10209074;28;20533;-65
2021/03/04 16:32:43;;;;;;;14.10;6.68;;;;;;;5.18;73.41;101791.50;10209481;28;20052;-64
2021/03/04 16:37:40;;;;;;;8.80;6.45;;;;;;;4.87;73.53;101800.34;10205930;28;20525;-67
2021/03/04 16:42:36;;;;;;;7.18;3.53;;;;;;;5.16;74.20;101799.06;10207107;28;20060;-66
2021/03/04 16:47:32;;;;;;;10.88;7.30;;;;;;;4.84;70.75;101802.50;10212887;28;20045;-65
2021/03/04 16:52:29;;;;;;;13.15;8.20;;;;;;;4.48;69.52;101811.22;10206372;28;20058;-66
2021/03/04 16:57:25;;;;;;;11.73;7.50;;;;;;;4.57;70.17;101818.69;10198383;28;20108;-67
2021/03/04 17:02:35;;;;;;;10.35;7.25;;;;;;;4.83;72.41;101817.13;10207115;28;20170;-67
2021/03/04 17:07:32;;;;;;;12.35;7.07;;;;;;;5.06;74.77;101820.66;10194800;28;20056;-66
2021/03/04 17:12:29;;;;;;;11.30;7.18;;;;;;;5.05;74.40;101832.56;10201664;28;20056;-65
2021/03/04 17:17:25;;;;;;;7.40;4.88;;;;;;;4.95;74.44;101835.97;10209235;28;20060;-67
2021/03/04 17:22:21;;;;;;;12.85;8.35;;;;;;;4.68;69.90;101841.31;10195088;28;20521;-64
2021/03/04 17:27:17;;;;;;;8.75;4.97;;;;;;;5.07;75.65;101849.41;10196082;28;20041;-66
2021/03/04 17:32:13;;;;;;;12.48;7.85;;;;;;;4.66;75.35;101854.28;10203398;28;20096;-67
2021/03/04 17:37:10;;;;;;;13.13;7.80;;;;;;;4.83;73.83;101876.75;10202359;28;20045;-67
2021/03/04 17:42:19;;;;;;;10.18;6.45;;;;;;;4.84;75.57;101875.66;10196787;28;20191;-67
2021/03/04 17:47:15;;;;;;;12.40;7.50;;;;;;;4.89;75.23;101887.66;10201642;28;20092;-67
2021/03/04 17:52:11;;;;;;;10.85;6.00;;;;;;;4.81;74.47;101889.72;10208529;28;20131;-68
2021/03/04 17:57:07;;;;;;;14.10;8.68;;;;;;;4.64;71.78;101899.75;10198948;28;20057;-66
2021/03/04 18:02:03;;;;;;;13.23;9.30;;;;;;;4.67;73.61;101902.00;10199827;28;20037;-66
2021/03/04 18:06:59;;;;;;;16.63;8.43;;;;;;;4.70;74.00;101915.03;10188118;28;20695;-66
2021/03/04 18:11:55;;;;;;;14.48;9.30;;;;;;;4.47;71.85;101915.22;10204308;28;20046;-69
2021/03/04 18:16:51;;;;;;;14.82;8.70;;;;;;;4.63;70.34;101925.22;10209127;28;20103;-69
2021/03/04 18:21:48;;;;;;;15.30;9.13;;;;;;;4.57;68.68;101923.50;10200330;28;20549;-69
2021/03/04 18:26:44;;;;;;;17.25;10.27;;;;;;;4.48;69.87;101924.97;10199898;28;20554;-69
2021/03/04 18:31:40;;;;;;;15.88;9.25;;;;;;;4.35;69.68;101928.84;10199880;28;20042;-67
2021/03/04 18:36:36;;;;;;;14.77;9.13;;;;;;;4.35;69.71;101935.09;10195901;28;20049;-70
2021/03/04 18:41:33;;;;;;;15.73;9.40;;;;;;;4.33;70.17;101931.00;10191573;28;20049;-69
2021/03/04 18:46:28;;;;;;;15.07;9.05;;;;;;;4.39;69.50;101936.25;10210344;28;20041;-69
2021/03/04 18:51:25;;;;;;;12.60;8.18;;;;;;;4.29;69.25;101930.66;10205164;28;20423;-71
2021/03/04 18:56:20;;;;;;;13.40;8.75;;;;;;;4.28;69.95;101929.03;10206902;28;20132;-70
2021/03/04 19:01:17;;;;;;;12.65;7.03;;;;;;;4.38;70.48;101931.88;10212106;28;20053;-70
2021/03/04 19:06:13;;;;;;;11.77;4.05;;;;;;;4.41;69.42;101931.41;10205212;28;20061;-68
2021/03/04 19:11:09;;;;;;;6.15;2.53;;;;;;;4.53;71.88;101934.03;10194729;28;20052;-69
2021/03/04 19:16:05;;;;;;;5.15;2.33;;;;;;;4.49;73.37;101937.47;10228022;28;20087;-69
2021/03/04 19:21:02;;;;;;;7.72;1.75;;;;;;;4.59;73.54;101945.75;10192309;28;20045;-70
2021/03/04 19:25:58;;;;;;;3.42;1.10;;;;;;;4.42;72.68;101941.16;10199785;28;20049;-69
2021/03/04 19:30:54;;;;;;;5.70;1.63;;;;;;;4.33;70.30;101936.41;10193622;28;20057;-69
2021/03/04 19:35:50;;;;;;;6.70;1.10;;;;;;;4.18;71.36;101950.53;10194907;28;20046;-69
2021/03/04 19:40:46;;;;;;;3.17;1.00;;;;;;;3.98;74.01;101951.78;10192227;28;20054;-68
2021/03/04 19:45:43;;;;;;;7.78;1.95;;;;;;;3.69;64.46;101963.66;10187387;28;20050;-68
2021/03/04 19:50:39;;;;;;;4.03;0.85;;;;;;;3.63;63.78;101970.06;10195509;28;20049;-69
2021/03/04 19:55:36;;;;;;;5.28;1.30;;;;;;;3.57;62.00;101972.69;10194863;28;20054;-69
2021/03/04 20:00:32;;;;;;;9.55;1.20;;;;;;;3.42;63.40;101987.75;10190997;28;20061;-67
2021/03/04 20:05:28;;;;;;;5.82;1.30;;;;;;;3.12;61.68;101992.25;10187901;28;20052;-67
2021/03/04 20:10:24;;;;;;;5.20;1.30;;;;;;;3.04;62.01;102000.75;10193286;28;20543;-67
2021/03/04 20:15:22;;;;;;;6.72;2.10;;;;;;;2.72;62.45;102003.78;10208261;28;20150;-68
2021/03/04 20:20:19;;;;;;;7.35;1.60;;;;;;;2.85;62.01;102012.72;10195936;28;20137;-66
2021/03/04 20:25:16;;;;;;;6.38;1.00;;;;;;;2.50;61.35;102021.59;10196283;28;20050;-65
2021/03/04 20:30:12;;;;;;;7.90;1.58;;;;;;;2.58;62.05;102023.16;10203303;28;20115;-68
2021/03/04 20:35:20;;;;;;;6.45;1.15;;;;;;;2.10;62.30;102032.97;10207671;28;20049;-68
2021/03/04 20:40:16;;;;;;;10.90;1.58;;;;;;;2.04;62.17;102041.97;10193492;28;20524;-68
2021/03/04 20:45:13;;;;;;;7.18;1.15;;;;;;;2.16;63.03;102040.16;10188249;28;20056;-68
2021/03/04 20:50:09;;;;;;;6.65;1.10;;;;;;;2.32;62.70;102046.75;10186291;28;20077;-66
2021/03/04 20:55:06;;;;;;;7.60;1.65;;;;;;;2.13;62.72;102059.50;10190848;28;20137;-68
2021/03/04 21:00:06;;;;;;;4.32;1.55;;;;;;;2.27;64.73;102055.56;10189975;28;20064;-68
2021/03/04 21:05:04;;;;;;;6.75;1.20;;;;;;;2.60;65.33;102065.06;10239454;28;20465;-71
2021/03/04 21:10:00;;;;;;;7.40;1.20;;;;;;;1.95;63.05;102078.41;10232830;28;20089;-69
2021/03/04 21:14:56;;;;;;;7.07;1.15;;;;;;;2.16;63.18;102086.03;10195244;28;20833;-68
2021/03/04 21:19:55;;;;;;;3.95;0.90;;;;;;;2.19;62.78;102085.56;10187575;28;20046;-69
2021/03/04 21:24:51;;;;;;;10.15;1.65;;;;;;;2.15;62.70;102088.97;10202603;28;20147;-69
2021/03/04 21:29:47;;;;;;;9.88;1.17;;;;;;;2.10;63.92;102093.16;10204291;28;20134;-69
2021/03/04 21:34:44;;;;;;;4.78;1.10;;;;;;;2.08;67.02;102094.44;10212517;28;20053;-69
2021/03/04 21:39:41;;;;;;;6.60;1.15;;;;;;;1.95;63.97;102094.59;10208484;28;20087;-69
2021/03/04 21:44:37;;;;;;;5.68;1.00;;;;;;;1.76;63.52;102104.56;10221480;28;20037;-69
2021/03/04 21:49:33;;;;;;;8.68;1.55;;;;;;;1.65;63.77;102095.38;10210027;28;20092;-69
2021/03/04 21:54:29;;;;;;;7.05;1.10;;;;;;;1.63;63.61;102110.94;10211894;28;20045;-69
2021/03/04 21:59:28;;;;;;;7.05;1.25;;;;;;;1.55;63.70;102112.03;10198116;28;20123;-70
2021/03/04 22:04:24;;;;;;;6.70;1.30;;;;;;;1.25;64.32;102114.63;10195828;28;20045;-69
2021/03/04 22:09:20;;;;;;;9.02;1.60;;;;;;;1.15;64.46;102117.00;10202725;28;20052;-70
2021/03/04 22:14:16;;;;;;;7.50;1.10;;;;;;;1.27;64.51;102120.59;10212976;28;20073;-69
2021/03/04 22:19:12;;;;;;;2.85;0.77;;;;;;;0.99;65.04;102131.84;10211528;28;20047;-69
2021/03/04 22:24:08;;;;;;;4.72;1.00;;;;;;;0.95;65.13;102139.53;10202825;28;20049;-69
2021/03/04 22:29:05;;;;;;;3.83;1.17;;;;;;;0.89;65.27;102147.66;10205684;28;20034;-69
2021/03/04 22:34:01;;;;;;;5.47;1.40;;;;;;;0.88;65.34;102154.88;10205815;28;20156;-69
2021/03/04 22:38:57;;;;;;;4.85;0.93;;;;;;;0.78;65.74;102149.19;10208658;28;20042;-68
2021/03/04 22:43:53;;;;;;;6.15;1.30;;;;;;;0.73;65.71;102157.09;10196408;28;20065;-69
2021/03/04 22:48:49;;;;;;;8.05;1.20;;;;;;;0.72;65.89;102156.25;10203580;28;20135;-68
2021/03/04 22:53:45;;;;;;;6.55;0.95;;;;;;;0.59;66.50;102161.72;10194574;28;20504;-69